createdAt,value
2023-05-09T00:00:21.370Z,13.13
2023-05-09T00:03:23.201Z,13.90
2023-05-09T00:06:29.618Z,14.63
2023-05-09T00:09:31.485Z,14.25
2023-05-09T00:12:33.087Z,14.00
2023-05-09T00:15:34.668Z,14.55
2023-05-09T00:18:37.693Z,14.00
2023-05-09T00:21:39.328Z,12.65
2023-05-09T00:24:41.325Z,14.70
2023-05-09T00:27:45.148Z,14.55
2023-05-09T00:30:46.867Z,14.90
2023-05-09T00:33:48.556Z,15.77
2023-05-09T00:36:50.580Z,15.55
2023-05-09T00:39:52.133Z,17.20
2023-05-09T00:42:55.762Z,15.05
2023-05-09T00:45:57.560Z,16.38
2023-05-09T00:48:59.294Z,16.63
2023-05-09T00:52:04.171Z,15.85
2023-05-09T00:55:08.877Z,17.15
2023-05-09T00:58:10.932Z,18.25
2023-05-09T01:01:12.845Z,18.35
2023-05-09T01:04:14.784Z,17.92
2023-05-09T01:07:20.998Z,19.02
2023-05-09T01:10:56.959Z,16.88
2023-05-09T01:14:06.537Z,18.52
2023-05-09T01:17:25.808Z,17.50
2023-05-09T01:20:45.591Z,18.75
2023-05-09T01:23:57.399Z,17.87
2023-05-09T01:27:32.752Z,17.88
2023-05-09T01:30:37.562Z,18.88
2023-05-09T01:33:44.499Z,20.50
2023-05-09T01:36:49.307Z,18.70
2023-05-09T01:40:01.640Z,19.27
2023-05-09T01:43:07.928Z,20.38
2023-05-09T01:46:11.423Z,19.25
2023-05-09T01:49:14.328Z,21.45
2023-05-09T01:52:18.392Z,20.70
2023-05-09T01:55:22.665Z,19.80
2023-05-09T01:58:26.233Z,22.55
2023-05-09T02:01:28.806Z,20.33
2023-05-09T02:04:30.987Z,22.58
2023-05-09T02:07:33.568Z,22.00
2023-05-09T02:10:35.696Z,22.20
2023-05-09T02:13:38.292Z,24.08
2023-05-09T02:16:40.551Z,22.42
2023-05-09T02:19:45.612Z,24.85
2023-05-09T02:22:47.835Z,26.90
2023-05-09T02:25:50.633Z,22.73
2023-05-09T02:28:53.536Z,27.17
2023-05-09T02:31:55.878Z,24.73
2023-05-09T02:34:58.817Z,27.67
2023-05-09T02:38:01.511Z,30.83
2023-05-09T02:41:03.512Z,27.77
2023-05-09T02:44:05.132Z,28.90
2023-05-09T02:47:07.527Z,28.90
2023-05-09T02:50:09.356Z,28.65
2023-05-09T02:53:11.089Z,26.63
2023-05-09T02:56:12.741Z,26.70
2023-05-09T02:59:14.337Z,26.80
2023-05-09T03:02:15.978Z,26.52
2023-05-09T03:05:18.204Z,25.95
2023-05-09T03:08:19.777Z,26.83
2023-05-09T03:11:21.881Z,26.80
2023-05-09T03:14:23.496Z,26.33
2023-05-09T03:17:25.073Z,26.88
2023-05-09T03:20:27.682Z,24.50
2023-05-09T03:23:29.241Z,27.45
2023-05-09T03:26:30.820Z,28.20
2023-05-09T03:29:33.329Z,26.42
2023-05-09T03:32:34.900Z,28.70
2023-05-09T03:35:36.441Z,28.95
2023-05-09T03:38:37.989Z,31.52
2023-05-09T03:41:39.723Z,28.50
2023-05-09T03:44:41.283Z,30.98
2023-05-09T03:47:42.971Z,31.00
2023-05-09T03:50:44.546Z,31.38
2023-05-09T03:53:47.200Z,33.72
2023-05-09T03:56:48.857Z,35.53
2023-05-09T03:59:51.194Z,36.05
2023-05-09T04:02:53.494Z,35.83
2023-05-09T04:05:55.328Z,37.20
2023-05-09T04:08:56.932Z,37.78
2023-05-09T04:11:58.465Z,37.47
2023-05-09T04:15:00.144Z,37.00
2023-05-09T04:18:01.845Z,36.15
2023-05-09T04:21:03.659Z,38.60
2023-05-09T04:24:05.780Z,36.65
2023-05-09T04:27:07.845Z,38.08
2023-05-09T04:30:10.290Z,38.63
2023-05-09T04:33:11.933Z,38.85
2023-05-09T04:36:13.505Z,39.70
2023-05-09T04:39:15.226Z,40.42
2023-05-09T04:42:16.750Z,34.40
2023-05-09T04:45:18.919Z,37.47
2023-05-09T04:48:20.545Z,36.60
2023-05-09T04:51:22.224Z,34.92
2023-05-09T04:54:23.806Z,36.95
2023-05-09T04:57:25.754Z,35.75
2023-05-09T05:00:27.442Z,33.40
2023-05-09T05:03:28.968Z,36.35
2023-05-09T05:06:31.852Z,38.83
2023-05-09T05:09:33.421Z,38.42
2023-05-09T05:12:34.973Z,40.63
2023-05-09T05:15:36.500Z,40.95
2023-05-09T05:18:38.037Z,40.53
2023-05-09T05:21:39.582Z,41.42
2023-05-09T05:24:41.138Z,43.33
2023-05-09T05:27:42.776Z,44.15
2023-05-09T05:30:44.392Z,42.55
2023-05-09T05:33:46.202Z,41.22
2023-05-09T05:36:47.777Z,42.72
2023-05-09T05:39:51.426Z,44.03
2023-05-09T05:42:53.001Z,41.75
2023-05-09T05:45:54.865Z,46.08
2023-05-09T05:48:56.664Z,42.88
2023-05-09T05:51:58.251Z,46.03
2023-05-09T05:54:59.780Z,46.03
2023-05-09T05:58:01.314Z,40.28
2023-05-09T06:01:02.988Z,42.55
2023-05-09T06:04:04.680Z,38.75
2023-05-09T06:07:06.362Z,34.20
2023-05-09T06:10:08.843Z,33.40
2023-05-09T06:13:10.459Z,33.13
2023-05-09T06:16:19.333Z,31.48
2023-05-09T06:19:22.195Z,28.77
2023-05-09T06:22:23.708Z,30.13
2023-05-09T06:25:25.350Z,28.08
2023-05-09T06:28:27.029Z,27.60
2023-05-09T06:31:28.671Z,27.30
2023-05-09T06:34:30.364Z,24.48
2023-05-09T06:37:34.787Z,24.65
2023-05-09T06:40:36.554Z,25.15
2023-05-09T06:43:38.118Z,24.30
2023-05-09T06:46:39.747Z,24.17
2023-05-09T06:49:41.381Z,24.92
2023-05-09T06:52:42.964Z,24.30
2023-05-09T06:55:44.809Z,23.70
2023-05-09T06:58:46.405Z,24.02
2023-05-09T07:01:47.991Z,23.63
2023-05-09T07:04:49.971Z,23.08
2023-05-09T07:07:52.029Z,20.95
2023-05-09T07:10:53.619Z,22.83
2023-05-09T07:13:55.162Z,21.58
2023-05-09T07:17:09.940Z,20.95
2023-05-09T07:20:18.498Z,19.83
2023-05-09T07:23:20.439Z,19.90
2023-05-09T07:26:22.138Z,19.00
2023-05-09T07:29:23.669Z,18.55
2023-05-09T07:32:27.144Z,17.75
2023-05-09T07:35:28.802Z,18.83
2023-05-09T07:38:30.369Z,16.75
2023-05-09T07:41:32.077Z,16.10
2023-05-09T07:44:33.664Z,15.35
2023-05-09T07:47:35.243Z,14.52
2023-05-09T07:50:36.891Z,13.75
2023-05-09T07:53:38.449Z,13.93
2023-05-09T07:56:40.044Z,12.50
2023-05-09T07:59:42.243Z,12.55
2023-05-09T08:02:44.022Z,12.38
2023-05-09T08:05:45.628Z,11.65
2023-05-09T08:08:47.294Z,11.40
2023-05-09T08:11:48.933Z,11.35
2023-05-09T08:14:50.474Z,11.15
2023-05-09T08:17:52.137Z,11.18
2023-05-09T08:20:53.808Z,10.95
2023-05-09T08:23:55.675Z,12.30
2023-05-09T08:26:57.236Z,12.00
2023-05-09T08:29:59.004Z,9.48
2023-05-09T08:33:00.630Z,9.90
2023-05-09T08:36:02.932Z,9.73
2023-05-09T08:39:04.491Z,9.68
2023-05-09T08:42:07.235Z,8.68
2023-05-09T08:45:14.990Z,8.60
2023-05-09T08:48:17.315Z,8.00
2023-05-09T08:51:19.770Z,8.55
2023-05-09T08:54:23.077Z,8.80
2023-05-09T08:57:25.821Z,10.43
2023-05-09T09:00:28.439Z,8.75
2023-05-09T09:03:30.705Z,8.05
2023-05-09T09:06:34.597Z,9.23
2023-05-09T09:09:36.983Z,9.75
2023-05-09T09:12:39.762Z,8.82
2023-05-09T09:15:44.067Z,8.52
2023-05-09T09:18:46.564Z,9.20
2023-05-09T09:21:49.826Z,9.52
2023-05-09T09:24:51.556Z,10.70
2023-05-09T09:27:53.109Z,8.85
2023-05-09T09:30:54.725Z,8.93
2023-05-09T09:34:01.253Z,8.10
2023-05-09T09:37:03.005Z,8.15
2023-05-09T09:40:06.996Z,8.18
2023-05-09T09:43:09.704Z,7.60
2023-05-09T09:46:11.496Z,7.30
2023-05-09T09:49:14.432Z,6.75
2023-05-09T09:52:24.856Z,5.90
2023-05-09T09:58:28.227Z,5.38
2023-05-09T10:01:29.847Z,5.97
2023-05-09T10:04:33.796Z,5.95
2023-05-09T10:07:35.568Z,5.97
2023-05-09T10:10:38.038Z,6.30
2023-05-09T10:13:39.686Z,5.53
2023-05-09T10:16:44.229Z,5.57
2023-05-09T10:19:47.497Z,6.80
2023-05-09T10:22:50.694Z,5.90
2023-05-09T10:26:16.609Z,4.68
2023-05-09T10:29:22.888Z,5.47
2023-05-09T10:32:31.360Z,4.50
2023-05-09T10:35:46.301Z,4.72
2023-05-09T10:38:49.693Z,4.15
2023-05-09T10:41:51.557Z,5.65
2023-05-09T10:44:53.978Z,4.32
2023-05-09T10:47:56.851Z,4.63
2023-05-09T10:51:00.363Z,4.90
2023-05-09T10:54:12.846Z,4.35
2023-05-09T10:57:19.454Z,4.63
2023-05-09T11:00:24.763Z,4.20
2023-05-09T11:03:27.583Z,3.75
2023-05-09T11:06:45.387Z,4.72
2023-05-09T11:09:52.277Z,4.47
2023-05-09T11:12:58.677Z,4.55
2023-05-09T11:16:03.588Z,4.45
2023-05-09T11:19:05.849Z,4.32
2023-05-09T11:22:19.695Z,3.92
2023-05-09T11:25:28.026Z,4.05
2023-05-09T11:28:32.294Z,4.10
2023-05-09T11:31:33.902Z,3.17
2023-05-09T11:34:37.222Z,3.30
2023-05-09T11:38:04.726Z,3.90
2023-05-09T11:41:06.802Z,3.33
2023-05-09T11:44:17.049Z,2.90
2023-05-09T11:47:19.158Z,3.28
2023-05-09T11:50:21.687Z,3.15
2023-05-09T11:53:23.885Z,3.13
2023-05-09T11:56:25.534Z,2.97
2023-05-09T11:59:28.184Z,3.35
2023-05-09T12:02:30.434Z,3.58
2023-05-09T12:05:32.185Z,3.30
2023-05-09T12:08:34.295Z,3.90
2023-05-09T12:11:37.153Z,3.13
2023-05-09T12:14:39.729Z,3.20
2023-05-09T12:17:42.867Z,3.03
2023-05-09T12:20:47.069Z,3.50
2023-05-09T12:23:50.960Z,3.10
2023-05-09T12:26:55.591Z,3.45
2023-05-09T12:29:57.305Z,3.45
2023-05-09T12:32:59.041Z,3.13
2023-05-09T12:36:10.860Z,2.85
2023-05-09T12:39:13.090Z,2.95
2023-05-09T12:42:14.681Z,2.97
2023-05-09T12:45:17.196Z,2.90
2023-05-09T12:48:20.039Z,2.63
2023-05-09T12:51:22.181Z,2.70
2023-05-09T12:54:25.829Z,3.00
2023-05-09T12:57:29.514Z,2.90
2023-05-09T13:00:45.534Z,3.15
2023-05-09T13:04:04.065Z,3.08
2023-05-09T13:07:10.256Z,3.10
2023-05-09T13:10:14.337Z,3.10
2023-05-09T13:13:16.653Z,3.20
2023-05-09T13:16:18.509Z,3.25
2023-05-09T13:19:20.139Z,2.83
2023-05-09T13:22:21.783Z,2.92
2023-05-09T13:25:23.642Z,3.35
2023-05-09T13:28:25.478Z,2.65
2023-05-09T13:31:27.145Z,3.08
2023-05-09T13:34:28.841Z,3.42
2023-05-09T13:37:30.445Z,3.20
2023-05-09T13:40:32.038Z,2.80
2023-05-09T13:43:34.283Z,5.63
2023-05-09T13:46:36.970Z,5.80
2023-05-09T13:49:38.715Z,6.18
2023-05-09T13:52:40.494Z,6.10
2023-05-09T13:55:42.720Z,5.40
2023-05-09T13:58:44.294Z,8.13
2023-05-09T14:01:46.072Z,6.50
2023-05-09T14:04:47.761Z,6.13
2023-05-09T14:07:49.475Z,6.97
2023-05-09T14:10:51.072Z,7.38
2023-05-09T14:13:52.977Z,8.10
2023-05-09T14:16:54.568Z,8.70
2023-05-09T14:19:56.118Z,8.75
2023-05-09T14:23:00.489Z,9.88
2023-05-09T14:26:02.113Z,11.60
2023-05-09T14:29:05.469Z,11.25
2023-05-09T14:32:08.033Z,10.32
2023-05-09T14:35:09.851Z,11.02
2023-05-09T14:38:13.012Z,11.75
2023-05-09T14:41:15.164Z,12.80
2023-05-09T14:44:17.396Z,12.30
2023-05-09T14:47:18.991Z,12.43
2023-05-09T14:50:21.468Z,13.32
2023-05-09T14:53:23.808Z,12.85
2023-05-09T14:56:26.442Z,15.32
2023-05-09T14:59:28.399Z,13.48
2023-05-09T15:02:30.020Z,15.57
2023-05-09T15:05:31.545Z,15.80
2023-05-09T15:08:34.982Z,15.43
2023-05-09T15:11:46.868Z,16.52
2023-05-09T15:14:53.633Z,16.42
2023-05-09T15:17:55.266Z,16.80
2023-05-09T15:20:56.855Z,19.42
2023-05-09T15:23:58.621Z,18.08
2023-05-09T15:27:00.612Z,18.85
2023-05-09T15:30:02.676Z,16.65
2023-05-09T15:33:04.397Z,16.65
2023-05-09T15:36:06.733Z,19.10
2023-05-09T15:39:08.343Z,29.92
2023-05-09T15:42:12.210Z,18.00
2023-05-09T15:45:13.852Z,13.35
2023-05-09T15:48:16.664Z,13.60
2023-05-09T15:51:18.253Z,16.90
2023-05-09T15:54:20.257Z,12.98
2023-05-09T15:57:22.271Z,10.07
2023-05-09T16:00:24.567Z,11.20
2023-05-09T16:03:26.300Z,8.75
2023-05-09T16:06:28.568Z,12.68
2023-05-09T16:09:30.133Z,13.68
2023-05-09T16:12:32.768Z,7.95
2023-05-09T16:15:34.991Z,8.77
2023-05-09T16:18:36.562Z,11.07
2023-05-09T16:21:39.306Z,11.73
2023-05-09T16:24:41.229Z,9.20
2023-05-09T16:27:42.876Z,11.13
2023-05-09T16:30:44.502Z,11.60
2023-05-09T16:33:47.005Z,11.57
2023-05-09T16:36:48.607Z,10.77
2023-05-09T16:39:50.250Z,13.55
2023-05-09T16:42:53.181Z,14.50
2023-05-09T16:45:54.732Z,14.13
2023-05-09T16:48:56.406Z,17.83
2023-05-09T16:51:57.962Z,17.05
2023-05-09T16:54:59.585Z,19.60
2023-05-09T16:58:01.302Z,16.20
2023-05-09T17:01:03.445Z,13.73
2023-05-09T17:04:06.664Z,13.60
2023-05-09T17:07:08.656Z,13.23
2023-05-09T17:10:11.007Z,12.52
2023-05-09T17:13:12.630Z,13.85
2023-05-09T17:16:14.414Z,13.27
2023-05-09T17:19:16.667Z,13.15
2023-05-09T17:22:18.769Z,13.93
2023-05-09T17:25:20.418Z,12.18
2023-05-09T17:28:21.965Z,8.32
2023-05-09T17:31:23.609Z,7.60
2023-05-09T17:34:25.188Z,7.35
2023-05-09T17:37:26.757Z,4.18
2023-05-09T17:40:28.714Z,3.20
2023-05-09T17:43:30.774Z,3.00
2023-05-09T17:46:32.713Z,2.22
2023-05-09T17:49:34.308Z,1.90
2023-05-09T17:52:36.388Z,2.30
2023-05-09T17:55:37.929Z,2.25
2023-05-09T17:58:39.494Z,2.80
2023-05-09T18:01:41.329Z,2.95
2023-05-09T18:04:43.975Z,2.83
2023-05-09T18:07:45.552Z,2.42
2023-05-09T18:10:47.142Z,3.00
2023-05-09T18:13:48.819Z,3.60
2023-05-09T18:16:50.547Z,4.40
2023-05-09T18:19:52.131Z,5.40
2023-05-09T18:22:54.284Z,5.25
2023-05-09T18:25:55.995Z,5.68
2023-05-09T18:28:57.976Z,4.35
2023-05-09T18:31:59.534Z,4.40
2023-05-09T18:35:01.098Z,3.25
2023-05-09T18:38:02.690Z,3.42
2023-05-09T18:41:08.783Z,3.78
2023-05-09T18:44:10.588Z,3.05
2023-05-09T18:47:12.296Z,3.05
2023-05-09T18:50:14.148Z,2.70
2023-05-09T18:53:15.994Z,2.25
2023-05-09T18:56:20.980Z,2.08
2023-05-09T18:59:23.414Z,2.25
2023-05-09T19:02:25.261Z,2.20
2023-05-09T19:05:27.466Z,3.00
2023-05-09T19:08:29.131Z,3.05
2023-05-09T19:11:30.840Z,2.63
2023-05-09T19:14:32.462Z,2.90
2023-05-09T19:17:34.430Z,2.95
2023-05-09T19:20:36.755Z,4.30
2023-05-09T19:23:38.958Z,4.38
2023-05-09T19:26:40.570Z,9.18
2023-05-09T19:29:42.103Z,4.97
2023-05-09T19:32:44.407Z,5.28
2023-05-09T19:35:45.972Z,5.38
2023-05-09T19:38:47.578Z,6.45
2023-05-09T19:41:49.148Z,6.10
2023-05-09T19:44:52.301Z,5.93
2023-05-09T19:47:54.796Z,5.70
2023-05-09T19:50:58.440Z,5.78
2023-05-09T19:54:00.015Z,7.47
2023-05-09T19:57:01.917Z,6.03
2023-05-09T20:00:05.222Z,11.93
2023-05-09T20:03:07.876Z,5.75
2023-05-09T20:06:09.496Z,7.40
2023-05-09T20:09:11.250Z,5.85
2023-05-09T20:12:13.503Z,6.30
2023-05-09T20:15:15.442Z,6.40
2023-05-09T20:18:16.981Z,6.25
2023-05-09T20:21:18.523Z,7.10
2023-05-09T20:24:20.346Z,6.95
2023-05-09T20:27:21.958Z,5.50
2023-05-09T20:30:23.550Z,5.80
2023-05-09T20:33:25.242Z,4.57
2023-05-09T20:36:28.333Z,3.95
2023-05-09T20:39:29.895Z,3.10
2023-05-09T20:42:31.583Z,2.53
2023-05-09T20:45:33.186Z,2.53
2023-05-09T20:48:34.767Z,2.90
2023-05-09T20:51:36.448Z,2.97
2023-05-09T20:54:38.004Z,3.40
2023-05-09T20:57:39.605Z,3.10
2023-05-09T21:00:41.341Z,3.17
2023-05-09T21:03:42.975Z,3.28
2023-05-09T21:06:44.536Z,3.50
2023-05-09T21:09:50.704Z,3.78
2023-05-09T21:12:52.269Z,4.25
2023-05-09T21:15:53.843Z,4.45
2023-05-09T21:18:55.419Z,5.00
2023-05-09T21:21:57.919Z,5.88
2023-05-09T21:24:59.464Z,6.75
2023-05-09T21:28:01.011Z,6.90
2023-05-09T21:31:03.087Z,7.35
2023-05-09T21:34:09.735Z,7.93
2023-05-09T21:37:11.541Z,6.55
2023-05-09T21:40:13.742Z,7.47
2023-05-09T21:43:15.503Z,6.63
2023-05-09T21:46:17.571Z,7.03
2023-05-09T21:49:20.983Z,8.43
2023-05-09T21:52:23.506Z,8.43
2023-05-09T21:55:25.309Z,8.18
2023-05-09T21:58:26.864Z,7.50
2023-05-09T22:01:28.608Z,6.53
2023-05-09T22:04:30.260Z,7.13
2023-05-09T22:07:31.975Z,6.10
2023-05-09T22:10:34.035Z,5.38
2023-05-09T22:13:38.327Z,6.97
2023-05-09T22:16:40.009Z,7.65
2023-05-09T22:19:41.702Z,6.47
2023-05-09T22:22:43.234Z,9.43
2023-05-09T22:25:44.793Z,8.80
2023-05-09T22:28:46.408Z,9.63
2023-05-09T22:31:48.522Z,7.32
2023-05-09T22:34:50.136Z,8.60
2023-05-09T22:37:51.838Z,7.82
2023-05-09T22:40:53.412Z,8.05
2023-05-09T22:43:54.991Z,7.50
2023-05-09T22:46:56.550Z,8.15
2023-05-09T22:49:58.288Z,8.93
2023-05-09T22:53:00.035Z,6.32
2023-05-09T22:56:01.606Z,7.68
2023-05-09T22:59:03.274Z,7.45
2023-05-09T23:02:04.943Z,8.65
2023-05-09T23:05:08.861Z,8.52
2023-05-09T23:08:10.631Z,9.98
2023-05-09T23:11:12.280Z,8.52
2023-05-09T23:14:14.094Z,9.70
2023-05-09T23:17:16.100Z,9.02
2023-05-09T23:20:18.305Z,10.55
2023-05-09T23:23:20.241Z,8.75
2023-05-09T23:26:21.823Z,9.43
2023-05-09T23:29:23.472Z,8.20
2023-05-09T23:32:25.100Z,9.23
2023-05-09T23:35:26.866Z,8.75
2023-05-09T23:38:28.527Z,8.30
2023-05-09T23:41:30.152Z,7.75
2023-05-09T23:44:31.883Z,7.63
2023-05-09T23:47:33.578Z,7.65
2023-05-09T23:50:35.269Z,7.07
2023-05-09T23:53:36.885Z,7.95
2023-05-09T23:56:38.595Z,9.98
2023-05-09T23:59:42.035Z,12.43
